createdAt,value
2023-01-27T00:02:33.193Z,9.88
2023-01-27T00:05:07.395Z,10.50
2023-01-27T00:07:46.886Z,7.65
2023-01-27T00:10:21.646Z,22.63
2023-01-27T00:13:12.432Z,21.70
2023-01-27T00:15:45.988Z,21.23
2023-01-27T00:18:19.649Z,18.38
2023-01-27T00:21:10.597Z,10.30
2023-01-27T00:24:03.199Z,14.00
2023-01-27T00:26:36.754Z,10.50
2023-01-27T00:29:10.294Z,9.30
2023-01-27T00:32:01.651Z,8.90
2023-01-27T00:37:11.644Z,8.23
2023-01-27T00:39:46.702Z,8.90
2023-01-27T00:42:20.306Z,7.18
2023-01-27T00:45:11.241Z,7.57
2023-01-27T00:47:46.103Z,7.90
2023-01-27T00:50:19.899Z,8.57
2023-01-27T00:52:53.448Z,8.40
2023-01-27T00:55:28.477Z,6.18
2023-01-27T00:58:02.091Z,6.60
2023-01-27T01:00:35.604Z,6.90
2023-01-27T01:03:09.266Z,6.57
2023-01-27T01:05:43.051Z,6.78
2023-01-27T01:08:16.641Z,6.97
2023-01-27T01:10:51.655Z,7.50
2023-01-27T01:13:25.237Z,7.72
2023-01-27T01:15:58.874Z,7.72
2023-01-27T01:18:32.452Z,7.18
2023-01-27T01:21:07.669Z,6.63
2023-01-27T01:23:43.374Z,5.40
2023-01-27T01:26:19.537Z,5.75
2023-01-27T01:28:53.952Z,6.15
2023-01-27T01:31:27.583Z,5.88
2023-01-27T01:34:02.176Z,5.53
2023-01-27T01:36:35.763Z,5.70
2023-01-27T01:39:11.925Z,5.47
2023-01-27T01:41:47.111Z,5.63
2023-01-27T01:44:22.595Z,5.07
2023-01-27T01:46:56.464Z,4.95
2023-01-27T01:49:35.942Z,5.03
2023-01-27T01:52:14.759Z,4.63
2023-01-27T01:54:52.052Z,4.97
2023-01-27T01:57:29.758Z,4.88
2023-01-27T02:00:07.957Z,5.53
2023-01-27T02:02:48.511Z,5.10
2023-01-27T02:05:29.265Z,5.57
2023-01-27T02:08:09.143Z,5.30
2023-01-27T02:10:43.163Z,4.75
2023-01-27T02:13:18.200Z,4.72
2023-01-27T02:15:54.224Z,4.80
2023-01-27T02:18:28.561Z,3.90
2023-01-27T02:21:04.097Z,4.65
2023-01-27T02:23:54.672Z,6.28
2023-01-27T02:26:35.182Z,6.72
2023-01-27T02:29:12.082Z,6.10
2023-01-27T02:31:45.854Z,6.60
2023-01-27T02:34:23.142Z,5.60
2023-01-27T02:37:04.812Z,4.82
2023-01-27T02:39:42.989Z,6.32
2023-01-27T02:42:20.659Z,5.28
2023-01-27T02:44:54.222Z,5.53
2023-01-27T02:47:28.248Z,4.43
2023-01-27T02:50:01.745Z,5.88
2023-01-27T02:52:35.281Z,5.70
2023-01-27T02:55:10.396Z,6.28
2023-01-27T02:57:46.948Z,5.47
2023-01-27T03:00:39.371Z,5.40
2023-01-27T03:03:12.992Z,5.00
2023-01-27T03:05:47.645Z,5.88
2023-01-27T03:08:21.231Z,6.03
2023-01-27T03:10:55.975Z,5.40
2023-01-27T03:13:30.932Z,5.60
2023-01-27T03:16:22.955Z,6.35
2023-01-27T03:18:56.574Z,7.43
2023-01-27T03:21:30.262Z,6.85
2023-01-27T03:24:03.913Z,5.60
2023-01-27T03:26:38.570Z,5.82
2023-01-27T03:29:32.833Z,5.15
2023-01-27T03:32:07.733Z,6.32
2023-01-27T03:34:41.707Z,4.45
2023-01-27T03:37:39.226Z,5.50
2023-01-27T03:40:32.012Z,6.93
2023-01-27T03:46:15.628Z,6.57
2023-01-27T03:48:54.124Z,7.72
2023-01-27T03:51:28.254Z,7.63
2023-01-27T03:54:02.126Z,6.78
2023-01-27T03:56:35.771Z,7.47
2023-01-27T03:59:09.356Z,7.63
2023-01-27T04:01:45.079Z,8.57
2023-01-27T04:04:36.011Z,8.25
2023-01-27T04:07:09.556Z,8.05
2023-01-27T04:09:43.235Z,8.10
2023-01-27T04:12:15.745Z,8.18
2023-01-27T04:14:49.285Z,8.05
2023-01-27T04:17:24.300Z,7.50
2023-01-27T04:19:58.488Z,6.90
2023-01-27T04:22:32.124Z,6.50
2023-01-27T04:25:06.624Z,7.78
2023-01-27T04:27:40.322Z,7.13
2023-01-27T04:30:14.655Z,6.20
2023-01-27T04:32:49.578Z,6.93
2023-01-27T04:35:25.378Z,7.78
2023-01-27T04:38:01.429Z,11.60
2023-01-27T04:40:35.233Z,8.05
2023-01-27T04:43:08.793Z,7.03
2023-01-27T04:45:42.550Z,7.03
2023-01-27T04:48:17.830Z,5.30
2023-01-27T04:50:51.388Z,6.53
2023-01-27T04:53:25.031Z,6.88
2023-01-27T04:56:03.770Z,5.78
2023-01-27T04:58:37.241Z,6.53
2023-01-27T05:01:10.933Z,5.90
2023-01-27T05:03:45.826Z,6.22
2023-01-27T05:06:19.469Z,5.47
2023-01-27T05:08:53.505Z,6.13
2023-01-27T05:11:27.075Z,6.07
2023-01-27T05:14:00.615Z,6.15
2023-01-27T05:16:34.260Z,7.25
2023-01-27T05:19:10.398Z,7.53
2023-01-27T05:21:44.548Z,8.50
2023-01-27T05:24:18.227Z,8.23
2023-01-27T05:26:51.937Z,7.30
2023-01-27T05:29:25.588Z,7.15
2023-01-27T05:31:59.601Z,8.23
2023-01-27T05:34:34.755Z,7.50
2023-01-27T05:37:08.333Z,7.20
2023-01-27T05:39:41.849Z,7.75
2023-01-27T05:42:15.463Z,7.55
2023-01-27T05:44:50.546Z,7.45
2023-01-27T05:47:24.191Z,7.28
2023-01-27T05:49:59.146Z,5.68
2023-01-27T05:52:32.726Z,6.95
2023-01-27T05:55:07.212Z,5.82
2023-01-27T05:57:40.735Z,6.60
2023-01-27T06:00:15.294Z,7.32
2023-01-27T06:02:48.818Z,8.65
2023-01-27T06:05:23.762Z,7.63
2023-01-27T06:07:57.726Z,8.15
2023-01-27T06:10:32.141Z,8.45
2023-01-27T06:13:05.675Z,7.60
2023-01-27T06:15:42.531Z,7.20
2023-01-27T06:18:17.156Z,6.72
2023-01-27T06:20:52.356Z,6.80
2023-01-27T06:23:27.546Z,6.93
2023-01-27T06:26:04.808Z,6.85
2023-01-27T06:28:38.773Z,5.75
2023-01-27T06:31:14.989Z,6.78
2023-01-27T06:33:49.201Z,7.20
2023-01-27T06:36:24.429Z,6.45
2023-01-27T06:38:58.308Z,5.45
2023-01-27T06:41:32.073Z,7.63
2023-01-27T06:44:05.875Z,7.07
2023-01-27T06:46:40.068Z,8.13
2023-01-27T06:49:13.716Z,7.28
2023-01-27T06:51:48.773Z,8.20
2023-01-27T06:54:22.605Z,10.30
2023-01-27T06:56:56.342Z,12.27
2023-01-27T06:59:29.953Z,12.15
2023-01-27T07:02:03.628Z,8.43
2023-01-27T07:04:37.125Z,9.85
2023-01-27T07:07:12.107Z,13.55
2023-01-27T07:09:52.279Z,14.48
2023-01-27T07:12:26.484Z,12.55
2023-01-27T07:14:59.961Z,12.20
2023-01-27T07:17:33.703Z,14.93
2023-01-27T07:20:09.289Z,14.35
2023-01-27T07:22:44.247Z,12.63
2023-01-27T07:25:17.825Z,13.52
2023-01-27T07:27:51.391Z,12.05
2023-01-27T07:30:24.988Z,14.70
2023-01-27T07:33:05.647Z,15.15
2023-01-27T07:35:41.191Z,15.25
2023-01-27T07:38:16.180Z,12.77
2023-01-27T07:40:49.677Z,12.75
2023-01-27T07:43:24.823Z,12.75
2023-01-27T07:45:59.828Z,13.60
2023-01-27T07:48:33.389Z,13.93
2023-01-27T07:51:06.896Z,14.38
2023-01-27T07:53:41.878Z,14.25
2023-01-27T07:56:15.569Z,12.82
2023-01-27T07:58:49.211Z,13.73
2023-01-27T08:01:22.836Z,12.32
2023-01-27T08:03:56.689Z,11.77
2023-01-27T08:06:30.348Z,11.57
2023-01-27T08:09:05.441Z,10.77
2023-01-27T08:11:39.158Z,10.63
2023-01-27T08:14:12.681Z,11.80
2023-01-27T08:16:46.205Z,10.98
2023-01-27T08:19:20.458Z,12.85
2023-01-27T08:21:54.013Z,11.57
2023-01-27T08:24:29.151Z,12.70
2023-01-27T08:27:02.801Z,11.02
2023-01-27T08:29:36.398Z,12.35
2023-01-27T08:32:10.685Z,11.57
2023-01-27T08:34:44.418Z,11.98
2023-01-27T08:37:18.075Z,12.50
2023-01-27T08:39:58.292Z,12.35
2023-01-27T08:42:31.855Z,12.13
2023-01-27T08:45:05.999Z,12.75
2023-01-27T08:47:39.563Z,13.38
2023-01-27T08:50:13.700Z,12.25
2023-01-27T08:52:47.463Z,13.88
2023-01-27T08:55:22.596Z,14.30
2023-01-27T08:57:56.442Z,14.90
2023-01-27T09:00:30.121Z,14.88
2023-01-27T09:03:08.210Z,14.88
2023-01-27T09:05:42.633Z,14.90
2023-01-27T09:08:16.757Z,14.85
2023-01-27T09:10:52.160Z,14.13
2023-01-27T09:13:25.816Z,15.63
2023-01-27T09:16:01.299Z,15.27
2023-01-27T09:18:34.989Z,15.30
2023-01-27T09:21:08.771Z,13.82
2023-01-27T09:23:42.292Z,14.02
2023-01-27T09:26:17.304Z,14.40
2023-01-27T09:28:50.881Z,14.60
2023-01-27T09:31:24.488Z,14.85
2023-01-27T09:33:58.126Z,14.70
2023-01-27T09:36:33.556Z,14.00
2023-01-27T09:39:09.701Z,15.80
2023-01-27T09:42:28.726Z,14.15
2023-01-27T09:45:36.887Z,15.43
2023-01-27T09:48:43.338Z,17.13
2023-01-27T09:51:30.491Z,16.25
2023-01-27T09:54:30.951Z,15.57
2023-01-27T09:57:15.971Z,16.70
2023-01-27T10:00:13.502Z,15.60
2023-01-27T10:03:12.610Z,16.63
2023-01-27T10:06:11.254Z,15.45
2023-01-27T10:09:16.236Z,18.67
2023-01-27T10:11:57.750Z,15.73
2023-01-27T10:14:43.881Z,15.90
2023-01-27T10:17:31.948Z,16.33
2023-01-27T10:20:18.496Z,15.13
2023-01-27T10:23:04.768Z,17.15
2023-01-27T10:25:54.376Z,15.82
2023-01-27T10:28:31.333Z,17.15
2023-01-27T10:31:14.773Z,15.60
2023-01-27T10:33:52.909Z,17.75
2023-01-27T10:36:31.191Z,16.42
2023-01-27T10:39:15.286Z,18.40
2023-01-27T10:41:56.232Z,15.70
2023-01-27T10:44:46.822Z,16.38
2023-01-27T10:47:34.272Z,18.58
2023-01-27T10:50:12.699Z,17.17
2023-01-27T10:52:49.730Z,16.40
2023-01-27T10:55:27.122Z,18.02
2023-01-27T10:58:06.254Z,17.90
2023-01-27T11:01:19.294Z,19.70
2023-01-27T11:03:43.388Z,16.83
2023-01-27T11:06:20.252Z,19.63
2023-01-27T11:08:57.782Z,18.63
2023-01-27T11:11:46.908Z,15.98
2023-01-27T11:14:28.887Z,16.33
2023-01-27T11:17:13.939Z,16.30
2023-01-27T11:20:00.462Z,17.95
2023-01-27T11:22:39.051Z,16.20
2023-01-27T11:25:24.695Z,19.13
2023-01-27T11:28:11.702Z,16.77
2023-01-27T11:30:52.517Z,15.45
2023-01-27T11:33:34.016Z,16.65
2023-01-27T11:36:11.172Z,15.70
2023-01-27T11:38:45.001Z,16.60
2023-01-27T11:41:18.628Z,15.35
2023-01-27T11:43:52.714Z,15.32
2023-01-27T11:46:26.361Z,14.30
2023-01-27T11:49:00.609Z,13.48
2023-01-27T11:51:39.890Z,14.30
2023-01-27T11:54:19.468Z,14.13
2023-01-27T11:56:52.992Z,14.15
2023-01-27T11:59:32.578Z,13.68
2023-01-27T12:02:23.006Z,14.82
2023-01-27T12:05:04.710Z,14.10
2023-01-27T12:07:47.766Z,14.00
2023-01-27T12:10:31.461Z,13.70
2023-01-27T12:13:11.118Z,14.32
2023-01-27T12:15:54.472Z,13.40
2023-01-27T12:18:32.957Z,13.73
2023-01-27T12:21:10.533Z,14.07
2023-01-27T12:23:53.341Z,11.88
2023-01-27T12:26:35.175Z,13.63
2023-01-27T12:29:18.279Z,13.95
2023-01-27T12:31:54.779Z,12.45
2023-01-27T12:34:32.184Z,13.68
2023-01-27T12:37:08.969Z,14.85
2023-01-27T12:39:47.347Z,12.80
2023-01-27T12:42:36.419Z,12.70
2023-01-27T12:45:25.319Z,12.55
2023-01-27T12:48:16.091Z,13.63
2023-01-27T12:51:04.708Z,10.60
2023-01-27T12:53:39.971Z,11.38
2023-01-27T12:56:17.749Z,13.02
2023-01-27T12:58:59.400Z,12.75
2023-01-27T13:01:36.631Z,13.20
2023-01-27T13:04:16.740Z,13.73
2023-01-27T13:06:52.824Z,12.90
2023-01-27T13:09:30.487Z,12.90
2023-01-27T13:12:18.233Z,12.65
2023-01-27T13:14:54.075Z,12.20
2023-01-27T13:17:31.646Z,14.75
2023-01-27T13:20:09.776Z,13.27
2023-01-27T13:22:47.909Z,14.65
2023-01-27T13:25:25.611Z,14.05
2023-01-27T13:28:01.999Z,14.20
2023-01-27T13:30:40.486Z,15.30
2023-01-27T13:33:27.051Z,13.60
2023-01-27T13:36:11.275Z,13.05
2023-01-27T13:38:52.600Z,13.20
2023-01-27T13:41:48.633Z,13.27
2023-01-27T13:44:31.244Z,12.07
2023-01-27T13:47:14.082Z,15.57
2023-01-27T13:49:52.785Z,17.30
2023-01-27T13:52:27.065Z,11.43
2023-01-27T13:55:00.912Z,16.27
2023-01-27T13:57:52.448Z,13.63
2023-01-27T14:00:36.747Z,16.15
2023-01-27T14:03:43.580Z,11.85
2023-01-27T14:06:30.780Z,14.95
2023-01-27T14:09:20.622Z,12.25
2023-01-27T14:12:01.735Z,15.18
2023-01-27T14:14:58.253Z,12.38
2023-01-27T14:17:44.601Z,15.15
2023-01-27T14:20:41.555Z,13.32
2023-01-27T14:23:33.394Z,14.43
2023-01-27T14:26:15.541Z,13.53
2023-01-27T14:29:03.641Z,15.35
2023-01-27T14:31:52.005Z,12.65
2023-01-27T14:34:44.190Z,14.93
2023-01-27T14:37:25.414Z,13.95
2023-01-27T14:40:16.642Z,14.75
2023-01-27T14:43:05.912Z,14.82
2023-01-27T14:45:41.686Z,12.65
2023-01-27T14:48:43.469Z,13.32
2023-01-27T14:51:25.543Z,13.20
2023-01-27T14:54:15.926Z,13.00
2023-01-27T14:57:05.899Z,12.75
2023-01-27T14:59:48.275Z,12.50
2023-01-27T15:02:48.427Z,11.60
2023-01-27T15:05:32.042Z,11.38
2023-01-27T15:08:15.455Z,11.13
2023-01-27T15:10:58.224Z,10.98
2023-01-27T15:13:54.069Z,12.02
2023-01-27T15:16:55.512Z,10.98
2023-01-27T15:20:04.317Z,11.82
2023-01-27T15:22:55.198Z,11.32
2023-01-27T15:25:35.206Z,10.95
2023-01-27T15:28:14.303Z,12.82
2023-01-27T15:31:10.094Z,11.68
2023-01-27T15:33:51.313Z,13.55
2023-01-27T15:36:40.388Z,13.18
2023-01-27T15:39:25.999Z,12.93
2023-01-27T15:42:14.259Z,13.30
2023-01-27T15:45:02.784Z,11.68
2023-01-27T15:47:39.170Z,9.80
2023-01-27T15:50:20.680Z,14.77
2023-01-27T15:53:02.235Z,13.43
2023-01-27T15:55:39.089Z,15.57
2023-01-27T15:58:28.659Z,16.65
2023-01-27T16:01:04.404Z,13.38
2023-01-27T16:03:43.935Z,12.85
2023-01-27T16:06:19.588Z,12.68
2023-01-27T16:08:57.621Z,12.95
2023-01-27T16:11:43.394Z,14.30
2023-01-27T16:14:42.888Z,12.68
2023-01-27T16:17:33.389Z,11.35
2023-01-27T16:20:25.272Z,11.60
2023-01-27T16:23:03.668Z,11.77
2023-01-27T16:28:47.337Z,12.55
2023-01-27T16:31:26.113Z,13.18
2023-01-27T16:34:03.018Z,13.63
2023-01-27T16:36:37.926Z,13.20
2023-01-27T16:39:28.278Z,14.57
2023-01-27T16:42:02.002Z,15.13
2023-01-27T16:44:42.642Z,13.18
2023-01-27T16:47:24.182Z,16.10
2023-01-27T16:49:59.847Z,14.27
2023-01-27T16:52:42.258Z,14.75
2023-01-27T16:55:23.004Z,13.30
2023-01-27T16:57:57.926Z,13.73
2023-01-27T17:00:35.471Z,12.73
2023-01-27T17:03:17.063Z,14.68
2023-01-27T17:05:53.375Z,15.83
2023-01-27T17:08:30.581Z,13.30
2023-01-27T17:11:15.492Z,14.07
2023-01-27T17:13:53.855Z,16.77
2023-01-27T17:16:32.602Z,13.35
2023-01-27T17:19:12.665Z,11.68
2023-01-27T17:21:50.621Z,11.10
2023-01-27T17:24:28.898Z,10.88
2023-01-27T17:27:11.786Z,11.07
2023-01-27T17:29:48.877Z,11.35
2023-01-27T17:32:25.572Z,11.73
2023-01-27T17:35:03.410Z,11.60
2023-01-27T17:37:43.199Z,13.23
2023-01-27T17:40:20.092Z,12.20
2023-01-27T17:42:53.753Z,12.07
2023-01-27T17:45:33.583Z,9.77
2023-01-27T17:48:07.603Z,12.82
2023-01-27T17:50:47.409Z,14.15
2023-01-27T17:53:24.895Z,14.10
2023-01-27T17:55:59.530Z,12.60
2023-01-27T17:58:33.226Z,12.60
2023-01-27T18:01:07.409Z,11.20
2023-01-27T18:03:42.110Z,11.95
2023-01-27T18:06:19.564Z,12.60
2023-01-27T18:08:55.362Z,12.57
2023-01-27T18:11:35.960Z,11.13
2023-01-27T18:14:19.592Z,13.27
2023-01-27T18:17:00.971Z,13.30
2023-01-27T18:19:35.413Z,13.15
2023-01-27T18:22:16.506Z,13.88
2023-01-27T18:24:53.085Z,11.88
2023-01-27T18:27:32.805Z,12.80
2023-01-27T18:30:13.117Z,12.90
2023-01-27T18:32:49.731Z,13.82
2023-01-27T18:35:41.392Z,12.27
2023-01-27T18:38:25.098Z,12.10
2023-01-27T18:41:10.153Z,12.77
2023-01-27T18:43:44.387Z,12.52
2023-01-27T18:50:01.168Z,15.07
2023-01-27T18:52:35.833Z,14.15
2023-01-27T18:55:18.371Z,16.13
2023-01-27T18:59:03.098Z,12.43
2023-01-27T19:06:00.901Z,15.65
2023-01-27T19:08:39.680Z,20.08
2023-01-27T19:11:18.140Z,17.90
2023-01-27T19:13:52.624Z,15.93
2023-01-27T19:16:27.700Z,13.15
2023-01-27T19:19:06.360Z,14.13
2023-01-27T19:21:40.332Z,14.23
2023-01-27T19:24:23.682Z,12.15
2023-01-27T19:27:13.333Z,11.68
2023-01-27T19:29:50.798Z,12.23
2023-01-27T19:32:26.328Z,11.68
2023-01-27T19:35:29.314Z,13.50
2023-01-27T19:38:09.699Z,12.68
2023-01-27T19:44:26.115Z,12.38
2023-01-27T19:47:19.830Z,13.20
2023-01-27T19:50:21.866Z,13.63
2023-01-27T19:53:12.327Z,13.57
2023-01-27T19:56:55.338Z,13.20
2023-01-27T20:17:29.447Z,13.20
2023-01-27T20:20:15.428Z,13.25
2023-01-27T20:22:55.413Z,13.40
2023-01-27T20:25:29.947Z,13.88
2023-01-27T20:28:05.237Z,12.18
2023-01-27T20:30:42.594Z,14.00
2023-01-27T20:33:43.116Z,12.57
2023-01-27T20:36:18.293Z,12.30
2023-01-27T20:38:52.807Z,12.20
2023-01-27T20:41:26.607Z,12.57
2023-01-27T20:47:28.802Z,13.45
2023-01-27T20:50:21.494Z,12.45
2023-01-27T20:53:39.392Z,12.93
2023-01-27T20:56:16.994Z,12.70
2023-01-27T21:02:09.914Z,14.57
2023-01-27T21:04:49.766Z,12.32
2023-01-27T21:07:51.400Z,12.68
2023-01-27T21:10:58.817Z,14.00
2023-01-27T21:25:33.569Z,13.13
2023-01-27T21:28:11.786Z,14.85
2023-01-27T21:31:17.579Z,13.80
2023-01-27T21:34:20.423Z,12.90
2023-01-27T21:37:11.801Z,12.73
2023-01-27T21:39:45.773Z,12.75
2023-01-27T21:42:38.777Z,12.95
2023-01-27T21:47:50.496Z,12.48
2023-01-27T21:50:24.194Z,11.43
2023-01-27T21:52:57.857Z,13.90
2023-01-27T21:55:31.840Z,14.60
2023-01-27T21:58:06.919Z,12.85
2023-01-27T22:00:41.177Z,13.93
2023-01-27T22:03:15.504Z,12.93
2023-01-27T22:05:52.303Z,14.40
2023-01-27T22:08:39.732Z,13.23
2023-01-27T22:14:22.432Z,12.17
2023-01-27T22:16:57.015Z,11.65
2023-01-27T22:19:31.779Z,11.68
2023-01-27T22:22:06.710Z,11.60
2023-01-27T22:24:42.626Z,12.15
2023-01-27T22:27:17.210Z,11.02
2023-01-27T22:29:52.592Z,12.10
2023-01-27T22:32:26.391Z,12.25
2023-01-27T22:35:00.122Z,12.65
2023-01-27T22:37:38.681Z,11.50
2023-01-27T22:40:14.058Z,11.93
2023-01-27T22:42:49.705Z,9.55
2023-01-27T22:45:25.538Z,10.38
2023-01-27T22:47:59.546Z,10.43
2023-01-27T22:50:33.573Z,10.63
2023-01-27T22:53:07.222Z,11.45
2023-01-27T22:55:40.959Z,10.82
2023-01-27T22:58:14.603Z,10.80
2023-01-27T23:00:49.748Z,10.23
2023-01-27T23:03:24.383Z,10.05
2023-01-27T23:05:58.031Z,10.15
2023-01-27T23:08:32.660Z,10.68
2023-01-27T23:11:08.171Z,9.95
2023-01-27T23:13:41.856Z,9.73
2023-01-27T23:16:17.161Z,10.45
2023-01-27T23:18:51.824Z,11.88
2023-01-27T23:21:25.585Z,8.70
2023-01-27T23:23:59.616Z,9.32
2023-01-27T23:26:33.357Z,9.98
2023-01-27T23:29:22.852Z,9.75
2023-01-27T23:31:59.242Z,9.48
2023-01-27T23:34:33.126Z,9.93
2023-01-27T23:37:06.816Z,10.00
2023-01-27T23:39:45.746Z,10.45
2023-01-27T23:42:19.676Z,9.65
2023-01-27T23:44:53.610Z,10.27
2023-01-27T23:47:28.850Z,10.80
2023-01-27T23:50:02.585Z,8.93
2023-01-27T23:52:36.360Z,9.63
2023-01-27T23:55:10.433Z,8.73
2023-01-27T23:57:44.294Z,8.75
